Decoded Metar for GMAD (AL MASSIRA MC in MOROCCO) (IATA:N/A) | Meteo·Mobile Aviation Weather
aviador You're here:

GMAD Decoded Metar

AL MASSIRA MC in MOROCCO
Report Time2019-02-16 17:30:00
UTC Time2019-02-16 17:49:06
Flight Rules vfr VFR
Wind050° at 11 kt
W.Decomp.*RWY 10: 7.5 kt HW 8 kt LCW
W.Rank050° ranks 16
Current wind is above 050° avg. (5.3)
Visibility8000 m
Phenomena:N/A
Clouds:N/A
Expected CloudBase > 10,800 ft AGL from Temp-Dew spread
CeilingNone
Temp22°C (ISA +7)
Dew Point-5°C (16% RH)
AAT15.4°C
QNH1016 hPa
Density Alt1,079 ft
Elevation243 ft
Report Wrong Elevation
Raw Report
GMAD 161730Z 05011KT 8000 NSC 22/M05 Q1016 NOSIG=

Extra information for GMAD:More info

Metar Taf Metar & Taf Last 4 Metars F.Rules Stats Wind Profile Meteogram Temp Stats Airport Information Weather charts Add Link Nearby VenuesMetar ALERT Operation Metar Decoded Social comments